ADDS METAR Data INFO
IDs: Format: Raw Decoded Include TAF

Data at: 0644 UTC 23 Feb 2018

KDSM 230619Z 20003KT 2 1/2SM -RA BR FEW003 SCT019 OVC029 01/01 A3015 RMK AO2 SFC VIS 3 P0001 T00060006
KDSM 230554Z 26004KT 2 1/2SM -RA BR SCT003 OVC014 01/00 A3016 RMK AO2 SFC VIS 4 SLP222 P0009 60032 I6006 T00060000 10006 20000 400061044 58008
KDSM 230523Z 24004KT 2SM -RA BR SCT003 OVC008 01/00 A3017 RMK AO2 TWR VIS 2 1/2 P0006 T00060000
KDSM 230454Z 21004KT 2 1/2SM -RA BR BKN004 OVC007 01/00 A3018 RMK AO2 RAB24FZRAE24 SLP229 P0018 I1000 T00060000
KDSM 230443Z 20006KT 2 1/2SM -RA BR OVC003 01/00 A3018 RMK AO2 RAB24FZRAE24 P0015 I1000 T00060000
KDSM 230424Z 18005KT 1 3/4SM -RA BR OVC002 01/01 A3017 RMK AO2 RAB24FZRAE24 P0010 I1000 T00060006
KDSM 230416Z 19007KT 1SM R31/5500VP6000FT -FZRA BR OVC002 01/01 A3018 RMK AO2 SFC VIS 1 3/4 P0006 I1000 T00060006
KDSM 230354Z 19009KT 1/2SM R31/2600V5500FT -FZRA FG VV002 01/01 A3018 RMK AO2 FZDZE14FZRAB14 SLP231 P0003 I1000 T00060006
KDSM 230352Z 19007KT 1/2SM R31/2600V6000FT -FZRA FG OVC002 01/01 A3018 RMK AO2 FZDZE14FZRAB14 P0003 I1000
KDSM 230342Z 18007KT 1SM R31/5000VP6000FT -FZRA BR OVC002 01/00 A3018 RMK AO2 FZDZE14FZRAB14 P0003 I1000 T00060000
KDSM 230325Z 14010KT 1 1/2SM R31/6000VP6000FT -FZRA BR OVC002 01/00 A3016 RMK AO2 FZDZE14FZRAB14 P0002 I1000 T00060000
KDSM 230315Z 13011KT 3/4SM R31/5000V6000FT -FZRA BR OVC002 01/00 A3016 RMK AO2 FZDZE14FZRAB14 P0000 I1000 T00060000
KDSM 230309Z 14010KT 3/4SM R31/5500VP6000FT -FZDZ BR OVC002 01/00 A3017 RMK AO2 P0000 I1000 T00060000
KDSM 230254Z 14010KT 1SM R31/P6000FT -FZDZ BR OVC002 01/00 A3017 RMK AO2 RAE20DZB20E40FZDZB40 SLP229 P0002 60002 I1005 I3006 T00060000 58001
KDSM 230240Z 12010KT 1SM R31/P6000FT -FZDZ BR OVC002 01/00 A3017 RMK AO2 SFC VIS 1 1/4 RAE20DZB20E40FZDZB40 P0002 I1005 T00060000
KDSM 230154Z 12007KT 2SM -RA BR OVC002 01/M01 A3020 RMK AO2 SFC VIS 4 RAB34FZDZE34 SLP237 P0000 I1000 T00061006
KDSM 230134Z 12010KT 2SM -RA BR OVC002 01/M01 A3020 RMK AO2 SFC VIS 2 1/2 RAB34FZDZE34 P0000 I1000 T00061006
KDSM 230054Z 11008G19KT 2SM -FZDZ BR OVC002 00/M01 A3019 RMK AO2 FZRAE22FZDZB22 SLP234 P0000 I1001 T00001006
KDSM 230052Z 10011G19KT 2SM -FZDZ BR OVC002 00/M01 A3018 RMK AO2 FZRAE22FZDZB22 P0000 I1001
KDSM 230022Z 10009KT 1SM R31/P6000FT -FZDZ BR OVC002 00/M01 A3021 RMK AO2 SFC VIS 2 FZRAE22FZDZB22 P0000 I1001 T00001006
KDSM 222354Z 11010KT 1SM R31/P6000FT -FZRA BR OVC003 00/M01 A3023 RMK AO2 SFC VIS 1 1/2 FZDZE43FZRAB43 SLP247 P0000 60001 I1001 I6007 T00001011 10000 21022 55023
KDSM 222349Z 11010KT 1SM R31/P6000FT -FZRA BR OVC003 00/M01 A3022 RMK AO2 SFC VIS 1 1/2 FZDZE43FZRAB43 P0000 I1000
KDSM 222338Z 10009KT 1SM R31/P6000FT -FZDZ BR OVC003 00/M01 A3023 RMK AO2 SFC VIS 1 3/4 P0000 I1000 T00001011
KDSM 222254Z 10008KT 2SM -FZDZ BR OVC003 00/M01 A3026 RMK AO2 SFC VIS 2 1/2 FZDZB2159 SLP257 P0000 I1001 T00001011
KDSM 222239Z 11007KT 2SM -FZDZ BR OVC004 00/M01 A3026 RMK AO2 SFC VIS 2 1/2 FZDZB2159 P0000 I1001 T00001011
KDSM 222221Z 11008KT 1SM R31/P6000FT -FZDZ BR OVC004 00/M01 A3028 RMK AO2 SFC VIS 1 1/2 FZDZB2159 CIG 003V009 P0000 I1001 T00001011
KDSM 222212Z 13009KT 1SM R31/5500VP6000FT -FZDZ BR OVC005 00/M01 A3029 RMK AO2 SFC VIS 1 1/4 FZDZB2159 CIG 003V009 P0000 I1001 T00001011
KDSM 222159Z 11010KT 1 1/2SM -FZDZ BR OVC005 00/M01 A3029 RMK AO2 FZDZB59 P0000 I1000 T00001011
KDSM 222154Z 11007KT 2 1/2SM BR OVC005 00/M01 A3030 RMK AO2 FZRAE05FZDZB05E50 SLP271 P0000 I1000 T00001011
KDSM 222144Z 14007KT 2 1/2SM -FZDZ BR OVC005 00/M02 A3031 RMK AO2 FZRAE05FZDZB05 P0000 I1000 T00001017
KDSM 222111Z 12007KT 7SM -FZDZ OVC005 00/M02 A3032 RMK AO2 FZRAE05FZDZB05 P0000 I1000 T00001017
KDSM 222054Z 12007KT 6SM -FZRA BR OVC005 M01/M02 A3033 RMK AO2 FZDZE43FZRAB51 PRESFR SLP281 P0000 60001 I1002 I3005 T10061017 56023
KDSM 222051Z 13007KT 6SM -FZRA BR OVC005 M01/M02 A3033 RMK AO2 FZDZE43FZRAB51 P0000 I1002
KDSM 222043Z 15005KT 7SM OVC004 M01/M02 A3034 RMK AO2 FZDZE43 P0000 I1002 T10061017
KDSM 222020Z 14006KT 2SM -FZDZ BR OVC004 M01/M02 A3034 RMK AO2 P0000 I1002 T10061017
KDSM 221954Z 13009KT 2SM R31/6000VP6000FT -FZDZ BR OVC005 M01/M02 A3035 RMK AO2 TWR VIS 2 1/2 FZRAE13FZDZB13 SLP290 P0001 I1003 T10111022
KDSM 221913Z 12009KT 2 1/2SM -FZDZ BR OVC005 M01/M03 A3034 RMK AO2 FZRAE13FZDZB13 P0000 I1000 T10111028
KDSM 221854Z 11009KT 3SM -FZRA BR OVC005 M02/M03 A3036 RMK AO2 FZDZE03FZRAB03 SLP292 P0000 I1001 T10171028
KDSM 221804Z 12008KT 4SM -FZRA BR OVC008 M02/M04 A3040 RMK AO2 FZDZE03FZRAB03 CIG 006V011 P0000 I1000 T10221039
KDSM 221754Z 10011KT 4SM -FZDZ BR OVC010 M02/M04 A3040 RMK AO2 FZDZB49 SLP306 P0000 60002 I1000 I6000 T10221044 11017 21039 58015
KDSM 221654Z 09009G19KT 10SM OVC012 M03/M05 A3041 RMK AO2 FZDZB17E24FZRAB24E53SNE17PLB17E24 SLP312 P0000 I1000 T10281050
KDSM 221624Z 09009KT 7SM -FZRA OVC014 M03/M06 A3043 RMK AO2 FZDZB17E24FZRAB24SNE17PLB17E24 P0000 I1000 T10281056
KDSM 221617Z 09010KT 6SM -FZDZPL BR BKN014 OVC019 M03/M06 A3044 RMK AO2 FZDZB17SNE17PLB17 P0000 I1000 T10331056
KDSM 221554Z 10010KT 10SM -SN BKN019 OVC033 M03/M06 A3044 RMK AO2 SLP322 P0001 T10331061
KDSM 221505Z 08009G15KT 7SM -SN FEW020 BKN035 OVC050 M03/M06 A3044 RMK AO2 P0001 T10331061
KDSM 221454Z 10011KT 3SM -SN BR BKN022 BKN036 OVC055 M04/M06 A3044 RMK AO2 SFC VIS 4 SLP321 P0001 60001 T10391061 58017
KDSM 221445Z 09010KT 1SM R31/5000VP6000FT -SN BR BKN018 OVC036 M04/M06 A3044 RMK AO2 SFC VIS 2 PRESFR P0001 T10391061
KDSM 221421Z 08008KT 3/4SM R31/4500VP6000FT -SN OVC023 M03/M08 A3047 RMK AO2 TWR VIS 1 P0000 T10331078
KDSM 221416Z 08008KT 1 1/2SM R31/5500VP6000FT -SN OVC027 M03/M08 A3047 RMK AO2 TWR VIS 3 P0000 T10331083
KDSM 221354Z 08008KT 9SM -SN OVC039 M03/M08 A3047 RMK AO2 SLP333 P0000 T10331083
KDSM 221254Z 05010KT 9SM -SN OVC055 M04/M08 A3047 RMK AO2 SLP332 P0000 T10391083
KDSM 221154Z 05007KT 9SM -SN OVC045 M04/M08 A3049 RMK AO2 SLP339 P0000 60000 T10391083 11033 21044 55010
KDSM 221054Z 04005KT 9SM -SN OVC060 M04/M08 A3048 RMK AO2 PRESRR SLP336 P0000 T10391083
KDSM 220954Z 05007KT 9SM -SN SCT050 OVC070 M04/M08 A3048 RMK AO2 SNB46 SLP334 P0000 T10391083
KDSM 220854Z 07005KT 10SM OVC080 M04/M09 A3052 RMK AO2 SNE07 SLP349 P0000 60000 T10391089 55002
KDSM 220754Z 05008KT 10SM -SN FEW065 OVC090 M04/M09 A3052 RMK AO2 SNB53 SLP347 P0000 T10391094
KDSM 220654Z 08006KT 10SM SCT075 OVC090 M04/M09 A3053 RMK AO2 SLP354 T10391094
KDSM 220554Z 06008KT 10SM OVC100 M04/M09 A3053 RMK AO2 SLP353 T10441094 11044 21044 410281111 58019
KDSM 220454Z 05008KT 10SM OVC100 M04/M09 A3055 RMK AO2 SLP361 T10441094
KDSM 220354Z 06010KT 10SM BKN095 OVC110 M04/M09 A3057 RMK AO2 SLP369 T10441094
KDSM 212354Z 05007KT 10SM FEW160 BKN250 OVC300 M04/M09 A3060 RMK AO2 SLP377 T10391094 11028 21061 50002
KDSM 212254Z 05009KT 10SM FEW160 BKN250 OVC300 M04/M09 A3060 RMK AO2 SLP379 T10391094
KDSM 212154Z 02009KT 10SM FEW025 FEW160 BKN250 OVC300 M03/M09 A3060 RMK AO2 SLP379 T10331089
KDSM 212054Z 04008KT 10SM FEW025 FEW230 BKN250 M03/M09 A3059 RMK AO2 SLP375 T10331094 58016
KDSM 211954Z 02008KT 10SM FEW025 FEW200 BKN250 M04/M09 A3061 RMK AO2 SLP381 T10391094
KDSM 211854Z 36006KT 10SM FEW025 FEW200 BKN250 M06/M11 A3064 RMK AO2 SLP392 T10561111